sensor_id;sensor_type;location;lat;lon;timestamp;P1;durP1;ratioP1;P2;durP2;ratioP2
80758;SDS011;70150;45.582;10.178;2023-06-10T00:00:12;16.20;;;9.90;;
80758;SDS011;70150;45.582;10.178;2023-06-10T00:02:40;16.35;;;9.43;;
80758;SDS011;70150;45.582;10.178;2023-06-10T00:05:06;13.38;;;9.48;;
80758;SDS011;70150;45.582;10.178;2023-06-10T00:07:33;15.98;;;9.30;;
80758;SDS011;70150;45.582;10.178;2023-06-10T00:10:04;15.32;;;10.73;;
80758;SDS011;70150;45.582;10.178;2023-06-10T00:12:30;14.68;;;9.43;;
80758;SDS011;70150;45.582;10.178;2023-06-10T00:15:01;17.45;;;10.00;;
80758;SDS011;70150;45.582;10.178;2023-06-10T00:17:28;15.52;;;9.20;;
80758;SDS011;70150;45.582;10.178;2023-06-10T00:19:54;15.30;;;10.60;;
80758;SDS011;70150;45.582;10.178;2023-06-10T00:22:20;12.57;;;9.32;;
80758;SDS011;70150;45.582;10.178;2023-06-10T00:29:38;11.73;;;8.90;;
80758;SDS011;70150;45.582;10.178;2023-06-10T00:32:04;16.55;;;10.50;;
80758;SDS011;70150;45.582;10.178;2023-06-10T00:34:30;14.25;;;9.85;;
80758;SDS011;70150;45.582;10.178;2023-06-10T00:36:57;12.45;;;9.32;;
80758;SDS011;70150;45.582;10.178;2023-06-10T00:39:22;14.73;;;10.10;;
80758;SDS011;70150;45.582;10.178;2023-06-10T00:41:48;19.05;;;10.48;;
80758;SDS011;70150;45.582;10.178;2023-06-10T00:44:15;17.60;;;10.45;;
80758;SDS011;70150;45.582;10.178;2023-06-10T00:46:41;18.58;;;10.75;;
80758;SDS011;70150;45.582;10.178;2023-06-10T00:49:07;18.42;;;10.27;;
80758;SDS011;70150;45.582;10.178;2023-06-10T00:51:33;16.58;;;10.90;;
80758;SDS011;70150;45.582;10.178;2023-06-10T00:53:59;16.08;;;10.15;;
80758;SDS011;70150;45.582;10.178;2023-06-10T00:56:25;15.80;;;10.25;;
80758;SDS011;70150;45.582;10.178;2023-06-10T00:58:50;15.05;;;9.88;;
80758;SDS011;70150;45.582;10.178;2023-06-10T01:01:16;13.73;;;10.05;;
80758;SDS011;70150;45.582;10.178;2023-06-10T01:03:42;15.90;;;10.52;;
80758;SDS011;70150;45.582;10.178;2023-06-10T01:11:34;16.80;;;10.55;;
80758;SDS011;70150;45.582;10.178;2023-06-10T01:14:09;15.18;;;10.20;;
80758;SDS011;70150;45.582;10.178;2023-06-10T01:16:37;15.98;;;9.95;;
80758;SDS011;70150;45.582;10.178;2023-06-10T01:19:05;14.48;;;10.18;;
80758;SDS011;70150;45.582;10.178;2023-06-10T01:21:32;14.10;;;9.95;;
80758;SDS011;70150;45.582;10.178;2023-06-10T01:24:00;14.88;;;9.75;;
80758;SDS011;70150;45.582;10.178;2023-06-10T01:26:28;18.23;;;9.93;;
80758;SDS011;70150;45.582;10.178;2023-06-10T01:28:58;15.45;;;10.10;;
80758;SDS011;70150;45.582;10.178;2023-06-10T01:34:06;17.40;;;10.45;;
80758;SDS011;70150;45.582;10.178;2023-06-10T01:36:35;16.88;;;10.00;;
80758;SDS011;70150;45.582;10.178;2023-06-10T01:39:01;16.25;;;9.70;;
80758;SDS011;70150;45.582;10.178;2023-06-10T01:41:29;16.00;;;10.52;;
80758;SDS011;70150;45.582;10.178;2023-06-10T01:43:56;14.52;;;9.85;;
80758;SDS011;70150;45.582;10.178;2023-06-10T01:46:21;13.48;;;9.63;;
80758;SDS011;70150;45.582;10.178;2023-06-10T01:48:48;16.05;;;9.93;;
80758;SDS011;70150;45.582;10.178;2023-06-10T01:51:13;16.52;;;10.35;;
80758;SDS011;70150;45.582;10.178;2023-06-10T01:53:39;13.27;;;9.73;;
80758;SDS011;70150;45.582;10.178;2023-06-10T01:56:05;13.73;;;10.05;;
80758;SDS011;70150;45.582;10.178;2023-06-10T01:58:30;15.82;;;10.68;;
80758;SDS011;70150;45.582;10.178;2023-06-10T02:00:56;13.05;;;9.05;;
80758;SDS011;70150;45.582;10.178;2023-06-10T02:03:22;16.80;;;10.10;;
80758;SDS011;70150;45.582;10.178;2023-06-10T02:05:48;12.15;;;8.60;;
80758;SDS011;70150;45.582;10.178;2023-06-10T02:08:14;12.82;;;8.50;;
80758;SDS011;70150;45.582;10.178;2023-06-10T02:10:39;12.88;;;8.60;;
80758;SDS011;70150;45.582;10.178;2023-06-10T02:13:05;13.32;;;8.70;;
80758;SDS011;70150;45.582;10.178;2023-06-10T02:15:34;13.85;;;9.48;;
80758;SDS011;70150;45.582;10.178;2023-06-10T02:18:00;13.60;;;8.50;;
80758;SDS011;70150;45.582;10.178;2023-06-10T02:20:26;16.58;;;9.25;;
80758;SDS011;70150;45.582;10.178;2023-06-10T02:22:52;16.73;;;9.65;;
80758;SDS011;70150;45.582;10.178;2023-06-10T02:25:17;16.42;;;8.85;;
80758;SDS011;70150;45.582;10.178;2023-06-10T02:27:43;11.27;;;8.75;;
80758;SDS011;70150;45.582;10.178;2023-06-10T02:30:09;16.40;;;9.60;;
80758;SDS011;70150;45.582;10.178;2023-06-10T02:32:35;14.50;;;9.35;;
80758;SDS011;70150;45.582;10.178;2023-06-10T02:35:01;16.05;;;9.90;;
80758;SDS011;70150;45.582;10.178;2023-06-10T02:37:26;16.98;;;9.77;;
80758;SDS011;70150;45.582;10.178;2023-06-10T02:39:52;15.38;;;9.63;;
80758;SDS011;70150;45.582;10.178;2023-06-10T02:42:17;14.30;;;9.23;;
80758;SDS011;70150;45.582;10.178;2023-06-10T02:44:43;15.10;;;10.02;;
80758;SDS011;70150;45.582;10.178;2023-06-10T02:47:09;12.48;;;9.07;;
80758;SDS011;70150;45.582;10.178;2023-06-10T02:49:34;16.40;;;9.52;;
80758;SDS011;70150;45.582;10.178;2023-06-10T02:52:00;14.55;;;8.88;;
80758;SDS011;70150;45.582;10.178;2023-06-10T02:54:26;15.20;;;8.60;;
80758;SDS011;70150;45.582;10.178;2023-06-10T02:56:51;12.07;;;8.45;;
80758;SDS011;70150;45.582;10.178;2023-06-10T02:59:18;13.15;;;8.40;;
80758;SDS011;70150;45.582;10.178;2023-06-10T03:01:44;11.60;;;8.35;;
80758;SDS011;70150;45.582;10.178;2023-06-10T03:04:10;11.10;;;7.90;;
80758;SDS011;70150;45.582;10.178;2023-06-10T03:06:38;15.90;;;7.95;;
80758;SDS011;70150;45.582;10.178;2023-06-10T03:09:06;13.88;;;7.90;;
80758;SDS011;70150;45.582;10.178;2023-06-10T03:11:33;14.75;;;8.15;;
80758;SDS011;70150;45.582;10.178;2023-06-10T03:13:58;12.20;;;8.10;;
80758;SDS011;70150;45.582;10.178;2023-06-10T03:16:24;11.20;;;7.97;;
80758;SDS011;70150;45.582;10.178;2023-06-10T03:18:50;12.05;;;8.25;;
80758;SDS011;70150;45.582;10.178;2023-06-10T03:21:18;12.57;;;7.80;;
80758;SDS011;70150;45.582;10.178;2023-06-10T03:23:43;10.20;;;7.90;;
80758;SDS011;70150;45.582;10.178;2023-06-10T03:26:10;13.13;;;7.95;;
80758;SDS011;70150;45.582;10.178;2023-06-10T03:28:37;11.57;;;7.78;;
80758;SDS011;70150;45.582;10.178;2023-06-10T03:31:03;12.38;;;7.70;;
80758;SDS011;70150;45.582;10.178;2023-06-10T03:33:28;15.25;;;7.95;;
80758;SDS011;70150;45.582;10.178;2023-06-10T03:35:55;11.40;;;7.20;;
80758;SDS011;70150;45.582;10.178;2023-06-10T03:38:20;11.63;;;7.38;;
80758;SDS011;70150;45.582;10.178;2023-06-10T03:40:46;12.20;;;7.03;;
80758;SDS011;70150;45.582;10.178;2023-06-10T03:43:12;11.07;;;6.90;;
80758;SDS011;70150;45.582;10.178;2023-06-10T03:45:37;11.10;;;7.03;;
80758;SDS011;70150;45.582;10.178;2023-06-10T03:48:03;10.73;;;7.20;;
80758;SDS011;70150;45.582;10.178;2023-06-10T03:50:29;12.02;;;7.50;;
80758;SDS011;70150;45.582;10.178;2023-06-10T03:52:55;12.60;;;7.50;;
80758;SDS011;70150;45.582;10.178;2023-06-10T03:55:20;12.07;;;7.85;;
80758;SDS011;70150;45.582;10.178;2023-06-10T03:57:51;11.95;;;8.35;;
80758;SDS011;70150;45.582;10.178;2023-06-10T04:00:19;12.88;;;7.95;;
80758;SDS011;70150;45.582;10.178;2023-06-10T04:02:46;12.52;;;7.70;;
80758;SDS011;70150;45.582;10.178;2023-06-10T04:05:15;13.25;;;8.32;;
80758;SDS011;70150;45.582;10.178;2023-06-10T04:07:42;12.80;;;8.43;;
80758;SDS011;70150;45.582;10.178;2023-06-10T04:10:09;12.75;;;8.10;;
80758;SDS011;70150;45.582;10.178;2023-06-10T04:12:36;12.93;;;8.35;;
80758;SDS011;70150;45.582;10.178;2023-06-10T04:15:03;14.23;;;8.15;;
80758;SDS011;70150;45.582;10.178;2023-06-10T04:17:29;12.32;;;8.00;;
80758;SDS011;70150;45.582;10.178;2023-06-10T04:19:55;13.40;;;8.07;;
80758;SDS011;70150;45.582;10.178;2023-06-10T04:22:21;13.38;;;8.35;;
80758;SDS011;70150;45.582;10.178;2023-06-10T04:24:47;10.80;;;7.88;;
80758;SDS011;70150;45.582;10.178;2023-06-10T04:27:13;12.07;;;8.30;;
80758;SDS011;70150;45.582;10.178;2023-06-10T04:29:39;12.82;;;7.97;;
80758;SDS011;70150;45.582;10.178;2023-06-10T04:32:04;11.32;;;7.80;;
80758;SDS011;70150;45.582;10.178;2023-06-10T04:34:32;12.32;;;7.22;;
80758;SDS011;70150;45.582;10.178;2023-06-10T04:39:24;13.68;;;7.88;;
80758;SDS011;70150;45.582;10.178;2023-06-10T04:41:49;11.45;;;7.53;;
80758;SDS011;70150;45.582;10.178;2023-06-10T04:44:15;11.32;;;7.72;;
80758;SDS011;70150;45.582;10.178;2023-06-10T04:46:43;13.18;;;8.25;;
80758;SDS011;70150;45.582;10.178;2023-06-10T04:49:10;11.52;;;8.18;;
80758;SDS011;70150;45.582;10.178;2023-06-10T04:51:36;11.75;;;8.35;;
80758;SDS011;70150;45.582;10.178;2023-06-10T04:58:55;12.98;;;7.75;;
80758;SDS011;70150;45.582;10.178;2023-06-10T05:01:21;11.38;;;7.28;;
80758;SDS011;70150;45.582;10.178;2023-06-10T05:03:47;12.25;;;8.52;;
80758;SDS011;70150;45.582;10.178;2023-06-10T05:06:12;11.80;;;7.97;;
80758;SDS011;70150;45.582;10.178;2023-06-10T05:08:38;14.90;;;8.57;;
80758;SDS011;70150;45.582;10.178;2023-06-10T05:11:03;11.75;;;7.97;;
80758;SDS011;70150;45.582;10.178;2023-06-10T05:13:29;14.90;;;8.50;;
80758;SDS011;70150;45.582;10.178;2023-06-10T05:15:54;12.00;;;7.95;;
80758;SDS011;70150;45.582;10.178;2023-06-10T05:18:20;16.92;;;8.38;;
80758;SDS011;70150;45.582;10.178;2023-06-10T05:20:46;11.82;;;7.95;;
80758;SDS011;70150;45.582;10.178;2023-06-10T05:23:11;11.85;;;7.75;;
80758;SDS011;70150;45.582;10.178;2023-06-10T05:25:37;12.48;;;8.30;;
80758;SDS011;70150;45.582;10.178;2023-06-10T05:28:03;12.57;;;7.38;;
80758;SDS011;70150;45.582;10.178;2023-06-10T05:30:28;14.00;;;7.85;;
80758;SDS011;70150;45.582;10.178;2023-06-10T05:32:54;11.20;;;7.68;;
80758;SDS011;70150;45.582;10.178;2023-06-10T05:35:21;14.90;;;9.02;;
80758;SDS011;70150;45.582;10.178;2023-06-10T05:37:47;12.82;;;7.90;;
80758;SDS011;70150;45.582;10.178;2023-06-10T05:40:14;11.93;;;7.35;;
80758;SDS011;70150;45.582;10.178;2023-06-10T05:42:40;15.05;;;7.88;;
80758;SDS011;70150;45.582;10.178;2023-06-10T05:45:06;12.52;;;7.53;;
80758;SDS011;70150;45.582;10.178;2023-06-10T05:47:32;12.75;;;7.38;;
80758;SDS011;70150;45.582;10.178;2023-06-10T05:50:00;10.25;;;7.00;;
80758;SDS011;70150;45.582;10.178;2023-06-10T05:52:25;13.85;;;7.85;;
80758;SDS011;70150;45.582;10.178;2023-06-10T05:54:51;13.38;;;7.75;;
80758;SDS011;70150;45.582;10.178;2023-06-10T05:57:16;16.20;;;8.10;;
80758;SDS011;70150;45.582;10.178;2023-06-10T05:59:42;12.50;;;7.80;;
80758;SDS011;70150;45.582;10.178;2023-06-10T06:02:07;14.85;;;8.02;;
80758;SDS011;70150;45.582;10.178;2023-06-10T06:04:33;12.27;;;7.85;;
80758;SDS011;70150;45.582;10.178;2023-06-10T06:06:59;12.13;;;7.78;;
80758;SDS011;70150;45.582;10.178;2023-06-10T06:09:25;11.98;;;9.07;;
80758;SDS011;70150;45.582;10.178;2023-06-10T06:11:50;14.07;;;8.98;;
80758;SDS011;70150;45.582;10.178;2023-06-10T06:14:16;11.63;;;8.45;;
80758;SDS011;70150;45.582;10.178;2023-06-10T06:16:42;13.55;;;9.52;;
80758;SDS011;70150;45.582;10.178;2023-06-10T06:19:07;16.38;;;9.38;;
80758;SDS011;70150;45.582;10.178;2023-06-10T06:21:34;16.55;;;9.85;;
80758;SDS011;70150;45.582;10.178;2023-06-10T06:24:00;14.57;;;9.95;;
80758;SDS011;70150;45.582;10.178;2023-06-10T06:26:25;15.98;;;10.55;;
80758;SDS011;70150;45.582;10.178;2023-06-10T06:28:51;16.33;;;10.73;;
80758;SDS011;70150;45.582;10.178;2023-06-10T06:31:17;14.50;;;10.07;;
80758;SDS011;70150;45.582;10.178;2023-06-10T06:33:43;20.45;;;11.50;;
80758;SDS011;70150;45.582;10.178;2023-06-10T06:36:08;17.52;;;11.18;;
80758;SDS011;70150;45.582;10.178;2023-06-10T06:38:34;16.90;;;10.57;;
80758;SDS011;70150;45.582;10.178;2023-06-10T06:40:59;17.23;;;10.23;;
80758;SDS011;70150;45.582;10.178;2023-06-10T06:43:28;16.55;;;9.70;;
80758;SDS011;70150;45.582;10.178;2023-06-10T06:45:55;17.35;;;9.73;;
80758;SDS011;70150;45.582;10.178;2023-06-10T06:48:21;16.83;;;10.52;;
80758;SDS011;70150;45.582;10.178;2023-06-10T06:50:47;17.33;;;10.63;;
80758;SDS011;70150;45.582;10.178;2023-06-10T06:53:13;19.95;;;11.45;;
80758;SDS011;70150;45.582;10.178;2023-06-10T06:55:38;20.05;;;11.07;;
80758;SDS011;70150;45.582;10.178;2023-06-10T06:58:04;17.23;;;10.75;;
80758;SDS011;70150;45.582;10.178;2023-06-10T07:00:32;16.30;;;11.15;;
80758;SDS011;70150;45.582;10.178;2023-06-10T07:02:58;16.60;;;10.85;;
80758;SDS011;70150;45.582;10.178;2023-06-10T07:05:24;16.05;;;10.52;;
80758;SDS011;70150;45.582;10.178;2023-06-10T07:07:55;14.95;;;10.50;;
80758;SDS011;70150;45.582;10.178;2023-06-10T07:10:23;18.38;;;11.98;;
80758;SDS011;70150;45.582;10.178;2023-06-10T07:12:49;18.55;;;13.57;;
80758;SDS011;70150;45.582;10.178;2023-06-10T07:15:15;22.20;;;13.50;;
80758;SDS011;70150;45.582;10.178;2023-06-10T07:17:41;18.10;;;12.93;;
80758;SDS011;70150;45.582;10.178;2023-06-10T07:20:08;20.08;;;13.05;;
80758;SDS011;70150;45.582;10.178;2023-06-10T07:22:34;22.33;;;13.43;;
80758;SDS011;70150;45.582;10.178;2023-06-10T07:24:59;20.52;;;13.73;;
80758;SDS011;70150;45.582;10.178;2023-06-10T07:27:25;26.13;;;13.93;;
80758;SDS011;70150;45.582;10.178;2023-06-10T07:29:51;20.95;;;13.40;;
80758;SDS011;70150;45.582;10.178;2023-06-10T07:32:16;21.02;;;12.85;;
80758;SDS011;70150;45.582;10.178;2023-06-10T07:34:42;19.95;;;11.77;;
80758;SDS011;70150;45.582;10.178;2023-06-10T07:37:08;17.48;;;12.10;;
80758;SDS011;70150;45.582;10.178;2023-06-10T07:39:34;19.00;;;12.45;;
80758;SDS011;70150;45.582;10.178;2023-06-10T07:42:00;20.38;;;12.88;;
80758;SDS011;70150;45.582;10.178;2023-06-10T07:44:26;14.93;;;10.90;;
80758;SDS011;70150;45.582;10.178;2023-06-10T07:46:51;18.58;;;11.20;;
80758;SDS011;70150;45.582;10.178;2023-06-10T07:49:19;17.67;;;12.00;;
80758;SDS011;70150;45.582;10.178;2023-06-10T07:51:45;18.80;;;11.73;;
80758;SDS011;70150;45.582;10.178;2023-06-10T07:54:10;21.35;;;12.93;;
80758;SDS011;70150;45.582;10.178;2023-06-10T07:59:02;16.45;;;11.00;;
80758;SDS011;70150;45.582;10.178;2023-06-10T08:01:28;15.25;;;10.13;;
80758;SDS011;70150;45.582;10.178;2023-06-10T08:03:58;14.13;;;9.38;;
80758;SDS011;70150;45.582;10.178;2023-06-10T08:06:23;14.55;;;9.77;;
80758;SDS011;70150;45.582;10.178;2023-06-10T08:08:49;15.30;;;9.82;;
80758;SDS011;70150;45.582;10.178;2023-06-10T08:11:14;15.48;;;10.32;;
80758;SDS011;70150;45.582;10.178;2023-06-10T08:13:40;17.30;;;11.25;;
80758;SDS011;70150;45.582;10.178;2023-06-10T08:16:06;22.55;;;11.23;;
80758;SDS011;70150;45.582;10.178;2023-06-10T08:18:32;19.55;;;11.63;;
80758;SDS011;70150;45.582;10.178;2023-06-10T08:20:59;15.38;;;9.85;;
80758;SDS011;70150;45.582;10.178;2023-06-10T08:23:25;14.63;;;8.98;;
80758;SDS011;70150;45.582;10.178;2023-06-10T08:25:50;16.08;;;8.65;;
80758;SDS011;70150;45.582;10.178;2023-06-10T08:28:16;14.88;;;9.52;;
80758;SDS011;70150;45.582;10.178;2023-06-10T08:30:42;14.25;;;9.48;;
80758;SDS011;70150;45.582;10.178;2023-06-10T08:33:07;15.65;;;9.23;;
80758;SDS011;70150;45.582;10.178;2023-06-10T08:35:33;15.90;;;9.88;;
80758;SDS011;70150;45.582;10.178;2023-06-10T08:37:59;15.43;;;8.90;;
80758;SDS011;70150;45.582;10.178;2023-06-10T08:40:25;15.27;;;8.93;;
80758;SDS011;70150;45.582;10.178;2023-06-10T08:45:34;12.88;;;8.77;;
80758;SDS011;70150;45.582;10.178;2023-06-10T08:48:03;14.43;;;8.35;;
80758;SDS011;70150;45.582;10.178;2023-06-10T08:50:33;14.32;;;8.73;;
80758;SDS011;70150;45.582;10.178;2023-06-10T08:53:01;14.25;;;8.32;;
80758;SDS011;70150;45.582;10.178;2023-06-10T08:55:30;13.75;;;8.88;;
80758;SDS011;70150;45.582;10.178;2023-06-10T08:57:59;14.30;;;7.72;;
80758;SDS011;70150;45.582;10.178;2023-06-10T09:00:26;12.07;;;7.95;;
80758;SDS011;70150;45.582;10.178;2023-06-10T09:02:52;12.77;;;8.45;;
80758;SDS011;70150;45.582;10.178;2023-06-10T09:05:18;14.57;;;8.35;;
80758;SDS011;70150;45.582;10.178;2023-06-10T09:07:47;13.80;;;7.70;;
80758;SDS011;70150;45.582;10.178;2023-06-10T09:10:13;13.57;;;8.27;;
80758;SDS011;70150;45.582;10.178;2023-06-10T09:12:39;11.25;;;7.78;;
80758;SDS011;70150;45.582;10.178;2023-06-10T09:15:05;11.77;;;8.20;;
80758;SDS011;70150;45.582;10.178;2023-06-10T09:17:32;11.05;;;7.72;;
80758;SDS011;70150;45.582;10.178;2023-06-10T09:19:59;11.20;;;6.72;;
80758;SDS011;70150;45.582;10.178;2023-06-10T09:22:27;9.82;;;5.95;;
80758;SDS011;70150;45.582;10.178;2023-06-10T09:27:25;8.90;;;6.03;;
80758;SDS011;70150;45.582;10.178;2023-06-10T09:29:51;9.07;;;5.82;;
80758;SDS011;70150;45.582;10.178;2023-06-10T09:32:18;8.10;;;5.95;;
80758;SDS011;70150;45.582;10.178;2023-06-10T09:34:44;8.85;;;6.05;;
80758;SDS011;70150;45.582;10.178;2023-06-10T09:37:11;12.55;;;7.53;;
80758;SDS011;70150;45.582;10.178;2023-06-10T09:39:38;10.25;;;6.20;;
80758;SDS011;70150;45.582;10.178;2023-06-10T09:47:19;8.20;;;5.10;;
80758;SDS011;70150;45.582;10.178;2023-06-10T09:49:46;8.80;;;5.35;;
80758;SDS011;70150;45.582;10.178;2023-06-10T09:52:11;7.00;;;4.65;;
80758;SDS011;70150;45.582;10.178;2023-06-10T09:54:37;9.85;;;4.80;;
80758;SDS011;70150;45.582;10.178;2023-06-10T09:57:06;6.85;;;3.63;;
80758;SDS011;70150;45.582;10.178;2023-06-10T09:59:35;7.22;;;4.00;;
80758;SDS011;70150;45.582;10.178;2023-06-10T10:02:03;5.18;;;2.90;;
80758;SDS011;70150;45.582;10.178;2023-06-10T10:04:29;6.18;;;2.60;;
80758;SDS011;70150;45.582;10.178;2023-06-10T10:06:55;5.55;;;2.85;;
80758;SDS011;70150;45.582;10.178;2023-06-10T10:09:21;6.80;;;3.58;;
80758;SDS011;70150;45.582;10.178;2023-06-10T10:11:46;5.07;;;3.60;;
80758;SDS011;70150;45.582;10.178;2023-06-10T10:14:13;7.43;;;3.90;;
80758;SDS011;70150;45.582;10.178;2023-06-10T10:16:41;6.57;;;4.45;;
80758;SDS011;70150;45.582;10.178;2023-06-10T10:19:10;6.82;;;3.90;;
80758;SDS011;70150;45.582;10.178;2023-06-10T10:21:43;9.93;;;4.30;;
80758;SDS011;70150;45.582;10.178;2023-06-10T10:24:17;9.13;;;4.03;;
80758;SDS011;70150;45.582;10.178;2023-06-10T10:26:46;7.90;;;4.63;;
80758;SDS011;70150;45.582;10.178;2023-06-10T10:29:16;7.88;;;5.15;;
80758;SDS011;70150;45.582;10.178;2023-06-10T10:31:45;8.85;;;4.60;;
80758;SDS011;70150;45.582;10.178;2023-06-10T10:34:19;11.80;;;7.20;;
80758;SDS011;70150;45.582;10.178;2023-06-10T10:36:49;13.00;;;7.38;;
80758;SDS011;70150;45.582;10.178;2023-06-10T10:39:15;9.95;;;7.25;;
80758;SDS011;70150;45.582;10.178;2023-06-10T10:44:08;9.18;;;4.85;;
80758;SDS011;70150;45.582;10.178;2023-06-10T10:49:07;10.25;;;4.63;;
80758;SDS011;70150;45.582;10.178;2023-06-10T10:51:34;6.75;;;5.20;;
80758;SDS011;70150;45.582;10.178;2023-06-10T10:56:32;11.98;;;7.03;;
80758;SDS011;70150;45.582;10.178;2023-06-10T10:59:03;11.27;;;7.78;;
80758;SDS011;70150;45.582;10.178;2023-06-10T11:04:01;11.85;;;7.70;;
80758;SDS011;70150;45.582;10.178;2023-06-10T11:06:33;9.25;;;6.60;;
80758;SDS011;70150;45.582;10.178;2023-06-10T11:08:58;7.07;;;4.85;;
80758;SDS011;70150;45.582;10.178;2023-06-10T11:11:26;9.93;;;6.10;;
80758;SDS011;70150;45.582;10.178;2023-06-10T11:16:25;11.73;;;6.03;;
80758;SDS011;70150;45.582;10.178;2023-06-10T11:18:53;9.55;;;5.90;;
80758;SDS011;70150;45.582;10.178;2023-06-10T11:21:20;11.70;;;6.53;;
80758;SDS011;70150;45.582;10.178;2023-06-10T11:23:45;10.63;;;6.43;;
80758;SDS011;70150;45.582;10.178;2023-06-10T11:33:44;23.38;;;9.57;;
80758;SDS011;70150;45.582;10.178;2023-06-10T11:38:41;15.45;;;9.77;;
80758;SDS011;70150;45.582;10.178;2023-06-10T11:41:08;16.77;;;10.93;;
80758;SDS011;70150;45.582;10.178;2023-06-10T11:46:01;15.10;;;10.20;;
80758;SDS011;70150;45.582;10.178;2023-06-10T11:48:27;20.17;;;9.25;;
80758;SDS011;70150;45.582;10.178;2023-06-10T11:50:55;11.52;;;8.20;;
80758;SDS011;70150;45.582;10.178;2023-06-10T11:53:21;15.90;;;8.32;;
80758;SDS011;70150;45.582;10.178;2023-06-10T11:55:47;13.50;;;8.15;;
80758;SDS011;70150;45.582;10.178;2023-06-10T11:58:17;13.82;;;8.45;;
80758;SDS011;70150;45.582;10.178;2023-06-10T12:00:44;16.42;;;9.77;;
80758;SDS011;70150;45.582;10.178;2023-06-10T12:03:12;13.82;;;9.40;;
80758;SDS011;70150;45.582;10.178;2023-06-10T12:05:38;18.58;;;9.80;;
80758;SDS011;70150;45.582;10.178;2023-06-10T12:10:39;16.75;;;8.90;;
80758;SDS011;70150;45.582;10.178;2023-06-10T12:13:06;14.07;;;9.05;;
80758;SDS011;70150;45.582;10.178;2023-06-10T12:15:34;11.95;;;7.68;;
80758;SDS011;70150;45.582;10.178;2023-06-10T12:18:00;14.55;;;10.13;;
80758;SDS011;70150;45.582;10.178;2023-06-10T12:20:27;14.73;;;9.00;;
80758;SDS011;70150;45.582;10.178;2023-06-10T12:22:54;12.55;;;8.85;;
80758;SDS011;70150;45.582;10.178;2023-06-10T12:25:24;11.82;;;7.45;;
80758;SDS011;70150;45.582;10.178;2023-06-10T12:27:54;13.35;;;8.45;;
80758;SDS011;70150;45.582;10.178;2023-06-10T12:30:21;12.50;;;7.38;;
80758;SDS011;70150;45.582;10.178;2023-06-10T12:32:48;10.82;;;8.32;;
80758;SDS011;70150;45.582;10.178;2023-06-10T12:35:16;12.55;;;8.02;;
80758;SDS011;70150;45.582;10.178;2023-06-10T12:37:54;13.25;;;8.50;;
80758;SDS011;70150;45.582;10.178;2023-06-10T12:42:51;11.48;;;7.70;;
80758;SDS011;70150;45.582;10.178;2023-06-10T12:45:25;12.02;;;8.00;;
80758;SDS011;70150;45.582;10.178;2023-06-10T12:50:26;11.90;;;7.25;;
80758;SDS011;70150;45.582;10.178;2023-06-10T12:52:52;11.20;;;7.50;;
80758;SDS011;70150;45.582;10.178;2023-06-10T12:55:17;14.70;;;7.45;;
80758;SDS011;70150;45.582;10.178;2023-06-10T13:00:14;11.20;;;7.22;;
80758;SDS011;70150;45.582;10.178;2023-06-10T13:05:08;11.60;;;7.72;;
80758;SDS011;70150;45.582;10.178;2023-06-10T13:07:34;14.10;;;8.55;;
80758;SDS011;70150;45.582;10.178;2023-06-10T13:10:02;13.60;;;8.73;;
80758;SDS011;70150;45.582;10.178;2023-06-10T13:12:27;16.80;;;8.13;;
80758;SDS011;70150;45.582;10.178;2023-06-10T13:14:54;11.57;;;7.25;;
80758;SDS011;70150;45.582;10.178;2023-06-10T13:17:20;13.23;;;7.95;;
80758;SDS011;70150;45.582;10.178;2023-06-10T13:19:49;11.57;;;7.63;;
80758;SDS011;70150;45.582;10.178;2023-06-10T13:22:15;11.30;;;7.50;;
80758;SDS011;70150;45.582;10.178;2023-06-10T13:24:41;9.88;;;7.35;;
80758;SDS011;70150;45.582;10.178;2023-06-10T13:27:08;13.35;;;7.20;;
80758;SDS011;70150;45.582;10.178;2023-06-10T13:29:34;10.00;;;6.93;;
80758;SDS011;70150;45.582;10.178;2023-06-10T13:31:59;12.20;;;6.55;;
80758;SDS011;70150;45.582;10.178;2023-06-10T13:34:25;12.75;;;7.45;;
80758;SDS011;70150;45.582;10.178;2023-06-10T13:36:51;11.07;;;8.05;;
80758;SDS011;70150;45.582;10.178;2023-06-10T13:39:16;11.57;;;6.82;;
80758;SDS011;70150;45.582;10.178;2023-06-10T13:41:42;14.18;;;8.23;;
80758;SDS011;70150;45.582;10.178;2023-06-10T13:44:08;12.57;;;7.63;;
80758;SDS011;70150;45.582;10.178;2023-06-10T13:46:33;13.23;;;9.70;;
80758;SDS011;70150;45.582;10.178;2023-06-10T13:48:59;16.30;;;11.07;;
80758;SDS011;70150;45.582;10.178;2023-06-10T13:51:24;26.30;;;11.18;;
80758;SDS011;70150;45.582;10.178;2023-06-10T13:53:50;17.00;;;10.05;;
80758;SDS011;70150;45.582;10.178;2023-06-10T13:56:17;15.07;;;9.50;;
80758;SDS011;70150;45.582;10.178;2023-06-10T13:58:43;15.00;;;10.98;;
80758;SDS011;70150;45.582;10.178;2023-06-10T14:01:09;15.73;;;10.15;;
80758;SDS011;70150;45.582;10.178;2023-06-10T14:03:35;15.88;;;8.95;;
80758;SDS011;70150;45.582;10.178;2023-06-10T14:06:00;15.95;;;9.15;;
80758;SDS011;70150;45.582;10.178;2023-06-10T14:08:26;12.30;;;9.30;;
80758;SDS011;70150;45.582;10.178;2023-06-10T14:10:52;11.77;;;9.20;;
80758;SDS011;70150;45.582;10.178;2023-06-10T14:13:18;15.27;;;9.32;;
80758;SDS011;70150;45.582;10.178;2023-06-10T14:15:43;14.52;;;8.90;;
80758;SDS011;70150;45.582;10.178;2023-06-10T14:20:35;15.57;;;9.35;;
80758;SDS011;70150;45.582;10.178;2023-06-10T14:23:01;16.17;;;9.63;;
80758;SDS011;70150;45.582;10.178;2023-06-10T14:25:27;16.05;;;9.93;;
80758;SDS011;70150;45.582;10.178;2023-06-10T14:27:53;13.60;;;9.00;;
80758;SDS011;70150;45.582;10.178;2023-06-10T14:30:18;13.88;;;8.77;;
80758;SDS011;70150;45.582;10.178;2023-06-10T14:32:44;14.23;;;8.32;;
80758;SDS011;70150;45.582;10.178;2023-06-10T14:35:10;14.43;;;8.50;;
80758;SDS011;70150;45.582;10.178;2023-06-10T14:37:36;14.73;;;9.38;;
80758;SDS011;70150;45.582;10.178;2023-06-10T14:40:02;14.05;;;9.55;;
80758;SDS011;70150;45.582;10.178;2023-06-10T14:42:29;14.43;;;9.52;;
80758;SDS011;70150;45.582;10.178;2023-06-10T14:44:57;11.23;;;8.75;;
80758;SDS011;70150;45.582;10.178;2023-06-10T14:47:22;14.77;;;10.00;;
80758;SDS011;70150;45.582;10.178;2023-06-10T14:49:48;12.65;;;8.48;;
80758;SDS011;70150;45.582;10.178;2023-06-10T14:52:13;11.15;;;8.40;;
80758;SDS011;70150;45.582;10.178;2023-06-10T14:54:39;10.82;;;8.35;;
80758;SDS011;70150;45.582;10.178;2023-06-10T14:57:05;13.55;;;9.73;;
80758;SDS011;70150;45.582;10.178;2023-06-10T14:59:31;14.43;;;8.57;;
80758;SDS011;70150;45.582;10.178;2023-06-10T15:01:56;13.68;;;8.82;;
80758;SDS011;70150;45.582;10.178;2023-06-10T15:04:26;11.50;;;8.27;;
80758;SDS011;70150;45.582;10.178;2023-06-10T15:06:52;13.40;;;8.40;;
80758;SDS011;70150;45.582;10.178;2023-06-10T15:09:18;12.95;;;8.50;;
80758;SDS011;70150;45.582;10.178;2023-06-10T15:11:43;15.27;;;8.77;;
80758;SDS011;70150;45.582;10.178;2023-06-10T15:14:11;14.05;;;10.00;;
80758;SDS011;70150;45.582;10.178;2023-06-10T15:16:37;15.13;;;10.73;;
80758;SDS011;70150;45.582;10.178;2023-06-10T15:19:03;13.73;;;9.00;;
80758;SDS011;70150;45.582;10.178;2023-06-10T15:21:31;15.18;;;8.95;;
80758;SDS011;70150;45.582;10.178;2023-06-10T15:23:56;16.50;;;9.77;;
80758;SDS011;70150;45.582;10.178;2023-06-10T15:26:22;15.02;;;9.88;;
80758;SDS011;70150;45.582;10.178;2023-06-10T15:28:47;18.17;;;10.85;;